createdAt,value
2018-05-18T00:00:03.886Z,42.35
2018-05-18T00:01:08.232Z,45.90
2018-05-18T00:02:12.834Z,38.60
2018-05-18T00:03:17.081Z,45.58
2018-05-18T00:04:21.431Z,44.75
2018-05-18T00:05:25.634Z,44.15
2018-05-18T00:06:29.927Z,39.05
2018-05-18T00:07:34.258Z,41.30
2018-05-18T00:08:38.566Z,40.67
2018-05-18T00:09:42.594Z,37.50
2018-05-18T00:10:46.634Z,35.10
2018-05-18T00:11:51.438Z,48.50
2018-05-18T00:12:55.470Z,42.10
2018-05-18T00:13:59.526Z,38.30
2018-05-18T00:15:03.960Z,37.38
2018-05-18T00:16:08.761Z,41.83
2018-05-18T00:17:12.806Z,43.78
2018-05-18T00:18:16.822Z,40.40
2018-05-18T00:19:20.950Z,37.97
2018-05-18T00:20:25.070Z,39.90
2018-05-18T00:21:29.123Z,36.45
2018-05-18T00:22:33.160Z,41.13
2018-05-18T00:23:37.218Z,37.95
2018-05-18T00:24:41.294Z,39.78
2018-05-18T00:25:46.138Z,39.92
2018-05-18T00:26:50.392Z,35.97
2018-05-18T00:27:54.603Z,32.05
2018-05-18T00:28:59.671Z,33.63
2018-05-18T00:30:03.926Z,34.53
2018-05-18T00:31:08.139Z,41.75
2018-05-18T00:32:12.372Z,33.58
2018-05-18T00:33:17.345Z,36.40
2018-05-18T00:34:22.026Z,31.60
2018-05-18T00:35:26.295Z,30.50
2018-05-18T00:36:31.370Z,31.95
2018-05-18T00:37:35.878Z,29.95
2018-05-18T00:38:40.379Z,33.13
2018-05-18T00:39:44.850Z,29.33
2018-05-18T00:40:48.901Z,28.92
2018-05-18T00:41:52.951Z,32.50
2018-05-18T00:42:57.006Z,26.50
2018-05-18T00:44:01.006Z,32.63
2018-05-18T00:45:05.019Z,34.97
2018-05-18T00:46:09.319Z,29.92
2018-05-18T00:47:13.518Z,27.15
2018-05-18T00:48:17.714Z,31.48
2018-05-18T00:49:21.939Z,35.47
2018-05-18T00:50:26.218Z,30.10
2018-05-18T00:51:30.377Z,29.48
2018-05-18T00:52:35.046Z,32.90
2018-05-18T00:53:39.217Z,31.52
2018-05-18T00:54:44.182Z,33.65
2018-05-18T00:55:48.498Z,30.83
2018-05-18T00:56:52.708Z,29.60
2018-05-18T00:57:57.718Z,33.17
2018-05-18T00:59:01.934Z,25.80
2018-05-18T01:00:06.207Z,26.48
2018-05-18T01:01:10.535Z,27.90
2018-05-18T01:02:14.732Z,26.60
2018-05-18T01:03:18.943Z,29.37
2018-05-18T01:04:23.222Z,25.90
2018-05-18T01:05:27.414Z,26.00
2018-05-18T01:06:32.518Z,26.35
2018-05-18T01:07:36.761Z,23.85
2018-05-18T01:08:41.722Z,31.17
2018-05-18T01:09:45.917Z,23.40
2018-05-18T01:10:50.490Z,30.62
2018-05-18T01:11:55.535Z,30.58
2018-05-18T01:12:59.778Z,32.22
2018-05-18T01:14:03.933Z,28.23
2018-05-18T01:15:08.745Z,24.27
2018-05-18T01:16:13.562Z,29.00
2018-05-18T01:17:18.643Z,34.88
2018-05-18T01:18:22.706Z,23.27
2018-05-18T01:19:27.724Z,34.22
2018-05-18T01:20:32.618Z,24.20
2018-05-18T01:21:36.670Z,29.92
2018-05-18T01:22:41.454Z,22.40
2018-05-18T01:23:46.711Z,27.23
2018-05-18T01:24:50.748Z,29.25
2018-05-18T01:25:54.794Z,27.02
2018-05-18T01:26:59.599Z,25.20
2018-05-18T01:28:04.446Z,25.27
2018-05-18T01:29:08.540Z,24.42
2018-05-18T01:30:13.341Z,26.45
2018-05-18T01:31:17.409Z,28.73
2018-05-18T01:32:21.426Z,22.20
2018-05-18T01:33:26.274Z,27.87
2018-05-18T01:34:31.105Z,21.48
2018-05-18T01:35:35.154Z,25.88
2018-05-18T01:36:39.240Z,23.05
2018-05-18T01:37:43.362Z,24.65
2018-05-18T01:38:47.592Z,21.55
2018-05-18T01:39:51.775Z,24.08
2018-05-18T01:40:56.751Z,25.67
2018-05-18T01:42:00.950Z,20.37
2018-05-18T01:43:05.570Z,29.58
2018-05-18T01:44:09.816Z,30.02
2018-05-18T01:45:14.070Z,27.33
2018-05-18T01:46:18.323Z,26.33
2018-05-18T01:47:22.526Z,23.92
2018-05-18T01:48:26.836Z,23.73
2018-05-18T01:49:31.559Z,29.87
2018-05-18T01:50:35.770Z,25.10
2018-05-18T01:51:39.974Z,32.10
2018-05-18T01:52:44.194Z,27.37
2018-05-18T01:53:49.403Z,25.35
2018-05-18T01:54:54.419Z,30.60
2018-05-18T01:55:59.003Z,23.23
2018-05-18T01:57:03.215Z,25.30
2018-05-18T01:58:07.423Z,21.92
2018-05-18T01:59:11.622Z,24.70
2018-05-18T02:00:15.951Z,24.98
2018-05-18T02:01:19.991Z,26.55
2018-05-18T02:02:24.794Z,17.90
2018-05-18T02:03:28.838Z,26.83
2018-05-18T02:04:32.902Z,21.42
2018-05-18T02:05:36.934Z,23.52
2018-05-18T02:06:40.988Z,27.83
2018-05-18T02:07:45.354Z,27.67
2018-05-18T02:08:49.362Z,25.45
2018-05-18T02:09:53.361Z,22.87
2018-05-18T02:10:57.383Z,24.58
2018-05-18T02:12:01.435Z,20.85
2018-05-18T02:13:06.204Z,30.25
2018-05-18T02:14:10.641Z,24.12
2018-05-18T02:15:14.682Z,25.83
2018-05-18T02:16:18.724Z,25.92
2018-05-18T02:17:22.798Z,26.12
2018-05-18T02:18:26.840Z,25.88
2018-05-18T02:19:30.916Z,29.40
2018-05-18T02:20:35.540Z,23.40
2018-05-18T02:21:39.960Z,21.92
2018-05-18T02:22:44.170Z,23.87
2018-05-18T02:23:48.375Z,19.25
2018-05-18T02:24:52.572Z,25.02
2018-05-18T02:25:57.089Z,23.80
2018-05-18T02:27:01.314Z,20.65
2018-05-18T02:28:05.684Z,24.02
2018-05-18T02:29:09.971Z,24.70
2018-05-18T02:30:14.175Z,22.85
2018-05-18T02:31:18.428Z,24.37
2018-05-18T02:32:22.926Z,27.05
2018-05-18T02:33:27.640Z,21.67
2018-05-18T02:34:31.971Z,25.48
2018-05-18T02:35:36.169Z,18.83
2018-05-18T02:36:41.106Z,24.83
2018-05-18T02:37:45.583Z,24.75
2018-05-18T02:38:49.811Z,21.40
2018-05-18T02:39:54.366Z,21.27
2018-05-18T02:40:58.551Z,26.87
2018-05-18T02:42:03.799Z,22.42
2018-05-18T02:43:08.144Z,20.80
2018-05-18T02:44:12.180Z,17.77
2018-05-18T02:45:16.974Z,21.20
2018-05-18T02:46:21.693Z,21.87
2018-05-18T02:47:25.727Z,19.75
2018-05-18T02:48:30.795Z,22.05
2018-05-18T02:49:34.879Z,22.10
2018-05-18T02:50:38.922Z,22.50
2018-05-18T02:51:43.346Z,18.75
2018-05-18T02:52:48.172Z,21.67
2018-05-18T02:53:53.003Z,25.30
2018-05-18T02:54:57.814Z,18.87
2018-05-18T02:56:02.612Z,17.20
2018-05-18T02:57:06.667Z,26.25
2018-05-18T02:58:10.720Z,34.05
2018-05-18T02:59:15.059Z,17.35
2018-05-18T03:00:19.169Z,19.75
2018-05-18T03:01:23.311Z,18.35
2018-05-18T03:04:24.358Z,18.27
2018-05-18T03:05:28.465Z,18.87
2018-05-18T03:06:32.537Z,20.52
2018-05-18T03:07:36.689Z,18.90
2018-05-18T03:08:41.671Z,23.45
2018-05-18T03:09:45.735Z,19.15
2018-05-18T03:10:50.135Z,22.58
2018-05-18T03:11:54.312Z,27.83
2018-05-18T03:12:58.351Z,19.62
2018-05-18T03:14:02.438Z,18.05
2018-05-18T03:15:06.574Z,18.35
2018-05-18T03:16:11.348Z,19.40
2018-05-18T03:17:16.467Z,18.33
2018-05-18T03:18:22.098Z,17.37
2018-05-18T03:19:26.526Z,19.40
2018-05-18T03:20:31.385Z,19.77
2018-05-18T03:21:35.462Z,18.37
2018-05-18T03:22:41.224Z,22.83
2018-05-18T03:23:45.385Z,21.37
2018-05-18T03:24:49.452Z,17.60
2018-05-18T03:25:53.559Z,18.92
2018-05-18T03:26:57.684Z,18.08
2018-05-18T03:28:01.796Z,24.50
2018-05-18T03:29:07.087Z,19.25
2018-05-18T03:30:11.380Z,23.50
2018-05-18T03:31:15.691Z,23.38
2018-05-18T03:32:19.957Z,18.55
2018-05-18T03:33:24.947Z,20.35
2018-05-18T03:34:29.185Z,18.83
2018-05-18T03:35:34.267Z,16.58
2018-05-18T03:36:38.485Z,22.65
2018-05-18T03:37:42.776Z,19.70
2018-05-18T03:38:47.128Z,19.00
2018-05-18T03:39:52.134Z,17.60
2018-05-18T03:40:56.371Z,21.25
2018-05-18T03:42:01.387Z,20.40
2018-05-18T03:43:06.443Z,19.95
2018-05-18T03:44:10.745Z,18.73
2018-05-18T03:45:14.991Z,21.05
2018-05-18T03:46:19.312Z,20.65
2018-05-18T03:47:23.521Z,23.77
2018-05-18T03:48:27.607Z,19.25
2018-05-18T03:49:31.660Z,19.12
2018-05-18T03:50:35.744Z,19.70
2018-05-18T03:51:40.532Z,18.02
2018-05-18T03:52:45.047Z,20.65
2018-05-18T03:53:49.111Z,19.67
2018-05-18T03:54:53.151Z,18.58
2018-05-18T03:55:57.230Z,22.55
2018-05-18T03:57:01.259Z,21.75
2018-05-18T03:58:05.306Z,22.17
2018-05-18T03:59:09.826Z,18.85
2018-05-18T04:00:14.082Z,19.37
2018-05-18T04:01:27.137Z,18.85
2018-05-18T04:04:45.111Z,20.55
2018-05-18T04:08:07.882Z,16.25
2018-05-18T04:09:12.890Z,25.70
2018-05-18T04:10:17.210Z,17.10
2018-05-18T04:11:21.741Z,21.27
2018-05-18T04:12:26.702Z,15.60
2018-05-18T04:13:30.911Z,15.10
2018-05-18T04:14:35.163Z,16.10
2018-05-18T04:15:39.399Z,17.42
2018-05-18T04:16:43.651Z,17.85
2018-05-18T04:17:47.866Z,18.00
2018-05-18T04:18:52.543Z,18.87
2018-05-18T04:19:56.833Z,20.62
2018-05-18T04:21:01.037Z,14.50
2018-05-18T04:22:05.336Z,15.88
2018-05-18T04:23:10.382Z,18.02
2018-05-18T04:24:14.611Z,16.10
2018-05-18T04:25:18.681Z,18.67
2018-05-18T04:26:23.025Z,17.15
2018-05-18T04:27:27.262Z,17.90
2018-05-18T04:28:31.288Z,16.08
2018-05-18T04:29:35.395Z,16.98
2018-05-18T04:30:39.803Z,17.27
2018-05-18T04:31:43.871Z,18.92
2018-05-18T04:32:47.911Z,17.35
2018-05-18T04:33:52.281Z,17.50
2018-05-18T04:34:57.864Z,16.10
2018-05-18T04:36:01.939Z,15.18
2018-05-18T04:37:07.135Z,15.57
2018-05-18T04:38:11.499Z,20.25
2018-05-18T04:39:15.539Z,18.80
2018-05-18T04:40:19.881Z,19.67
2018-05-18T04:41:24.727Z,18.52
2018-05-18T04:42:28.852Z,17.42
2018-05-18T04:43:34.296Z,15.55
2018-05-18T04:44:38.512Z,16.05
2018-05-18T04:45:42.783Z,20.20
2018-05-18T04:46:46.996Z,18.52
2018-05-18T04:47:51.592Z,15.20
2018-05-18T04:48:56.344Z,19.35
2018-05-18T04:50:00.912Z,18.48
2018-05-18T04:51:05.172Z,18.90
2018-05-18T04:52:10.215Z,16.58
2018-05-18T04:53:14.599Z,20.50
2018-05-18T04:54:18.884Z,18.02
2018-05-18T04:55:23.567Z,13.00
2018-05-18T04:56:28.390Z,18.05
2018-05-18T04:57:33.211Z,21.20
2018-05-18T04:58:37.394Z,18.50
2018-05-18T04:59:41.699Z,15.50
2018-05-18T05:00:46.723Z,13.40
2018-05-18T05:01:51.534Z,17.45
2018-05-18T05:02:55.580Z,16.98
2018-05-18T05:03:59.645Z,15.65
2018-05-18T05:05:03.739Z,17.23
2018-05-18T05:06:08.568Z,18.50
2018-05-18T05:07:13.881Z,18.58
2018-05-18T05:08:17.921Z,15.05
2018-05-18T05:09:21.982Z,19.23
2018-05-18T05:10:26.095Z,17.02
2018-05-18T05:11:30.163Z,16.10
2018-05-18T05:12:34.541Z,19.77
2018-05-18T05:13:38.908Z,20.02
2018-05-18T05:14:42.974Z,17.37
2018-05-18T05:15:47.063Z,15.18
2018-05-18T05:16:51.138Z,17.75
2018-05-18T05:17:56.246Z,16.35
2018-05-18T05:19:00.284Z,18.55
2018-05-18T05:20:04.342Z,19.10
2018-05-18T05:21:08.467Z,18.62
2018-05-18T05:22:13.328Z,20.15
2018-05-18T05:23:17.549Z,19.85
2018-05-18T05:24:21.771Z,19.58
2018-05-18T05:25:26.439Z,17.30
2018-05-18T05:26:30.701Z,14.48
2018-05-18T05:27:34.931Z,16.42
2018-05-18T05:28:39.199Z,16.65
2018-05-18T05:29:43.607Z,20.40
2018-05-18T05:30:49.758Z,18.15
2018-05-18T05:31:54.291Z,20.70
2018-05-18T05:32:58.375Z,19.73
2018-05-18T05:34:02.606Z,17.27
2018-05-18T05:35:08.055Z,20.02
2018-05-18T05:36:12.310Z,19.52
2018-05-18T05:37:16.388Z,23.23
2018-05-18T05:38:20.439Z,19.00
2018-05-18T05:39:24.802Z,17.83
2018-05-18T05:40:29.107Z,20.70
2018-05-18T05:41:33.370Z,17.80
2018-05-18T05:42:38.945Z,22.40
2018-05-18T05:43:43.645Z,23.45
2018-05-18T05:44:47.786Z,20.75
2018-05-18T05:45:51.915Z,17.77
2018-05-18T05:46:56.385Z,19.08
2018-05-18T05:48:00.447Z,25.62
2018-05-18T05:49:04.531Z,18.02
2018-05-18T05:50:10.011Z,23.08
2018-05-18T05:51:14.591Z,21.15
2018-05-18T05:52:19.628Z,21.35
2018-05-18T05:53:24.634Z,20.95
2018-05-18T05:54:29.644Z,21.15
2018-05-18T05:55:34.243Z,16.90
2018-05-18T05:56:39.333Z,20.33
2018-05-18T05:57:43.538Z,25.58
2018-05-18T05:58:48.451Z,22.90
2018-05-18T05:59:52.843Z,22.55
2018-05-18T06:00:57.817Z,19.15
2018-05-18T06:02:02.563Z,23.02
2018-05-18T06:03:06.828Z,18.02
2018-05-18T06:04:11.040Z,22.58
2018-05-18T06:05:15.302Z,21.52
2018-05-18T06:06:20.311Z,29.63
2018-05-18T06:07:24.585Z,19.45
2018-05-18T06:08:28.826Z,18.17
2018-05-18T06:09:33.072Z,20.10
2018-05-18T06:10:37.343Z,22.15
2018-05-18T06:11:43.332Z,22.85
2018-05-18T06:12:47.896Z,24.12
2018-05-18T06:13:52.450Z,28.02
2018-05-18T06:14:56.761Z,23.90
2018-05-18T06:16:01.003Z,22.35
2018-05-18T06:17:05.260Z,24.02
2018-05-18T06:18:09.623Z,23.02
2018-05-18T06:19:14.838Z,24.77
2018-05-18T06:20:19.799Z,20.02
2018-05-18T06:21:26.556Z,23.20
2018-05-18T06:22:31.547Z,23.20
2018-05-18T06:23:35.771Z,22.33
2018-05-18T06:24:41.810Z,21.87
2018-05-18T06:25:46.151Z,23.75
2018-05-18T06:26:51.163Z,19.58
2018-05-18T06:27:56.222Z,21.02
2018-05-18T06:29:00.492Z,23.62
2018-05-18T06:30:05.595Z,23.58
2018-05-18T06:31:09.874Z,23.20
2018-05-18T06:32:14.917Z,23.90
2018-05-18T06:33:20.506Z,21.95
2018-05-18T06:34:25.359Z,19.35
2018-05-18T06:35:29.595Z,20.45
2018-05-18T06:36:34.644Z,21.73
2018-05-18T06:37:38.978Z,20.10
2018-05-18T06:38:43.291Z,23.95
2018-05-18T06:39:47.923Z,23.08
2018-05-18T06:40:52.189Z,20.42
2018-05-18T06:41:57.224Z,21.48
2018-05-18T06:43:01.448Z,23.98
2018-05-18T06:44:05.782Z,20.85
2018-05-18T06:45:10.935Z,19.35
2018-05-18T06:46:15.189Z,20.48
2018-05-18T06:47:30.050Z,20.98
2018-05-18T06:48:35.246Z,20.88
2018-05-18T06:49:40.825Z,23.70
2018-05-18T06:50:45.031Z,25.08
2018-05-18T06:51:49.411Z,22.98
2018-05-18T06:52:53.708Z,22.20
2018-05-18T06:53:57.836Z,21.62
2018-05-18T06:55:01.924Z,22.48
2018-05-18T06:56:06.027Z,24.55
2018-05-18T06:57:10.419Z,23.23
2018-05-18T06:58:15.272Z,23.12
2018-05-18T06:59:19.604Z,23.17
2018-05-18T07:00:23.667Z,22.70
2018-05-18T07:01:27.830Z,23.10
2018-05-18T07:02:32.434Z,20.60
2018-05-18T07:03:36.758Z,28.65
2018-05-18T07:04:41.676Z,19.15
2018-05-18T07:05:46.732Z,19.55
2018-05-18T07:06:51.027Z,19.05
2018-05-18T07:08:04.768Z,25.00
2018-05-18T07:09:11.094Z,16.25
2018-05-18T07:10:16.133Z,22.67
2018-05-18T07:11:20.562Z,21.15
2018-05-18T07:12:25.655Z,19.98
2018-05-18T07:13:30.707Z,17.62
2018-05-18T07:14:35.389Z,22.15
2018-05-18T07:15:40.366Z,26.83
2018-05-18T07:16:45.527Z,25.12
2018-05-18T07:17:50.636Z,19.50
2018-05-18T07:18:55.379Z,21.05
2018-05-18T07:19:59.474Z,22.50
2018-05-18T07:21:03.907Z,21.23
2018-05-18T07:22:08.781Z,24.95
2018-05-18T07:23:12.834Z,20.95
2018-05-18T07:24:16.907Z,25.42
2018-05-18T07:25:21.235Z,20.95
2018-05-18T07:26:26.645Z,27.08
2018-05-18T07:27:31.301Z,24.87
2018-05-18T07:28:35.882Z,24.60
2018-05-18T07:29:42.286Z,24.23
2018-05-18T07:30:46.598Z,19.10
2018-05-18T07:31:50.842Z,21.50
2018-05-18T07:32:55.356Z,21.55
2018-05-18T07:33:59.570Z,20.83
2018-05-18T07:35:04.647Z,20.60
2018-05-18T07:36:08.949Z,21.80
2018-05-18T07:37:13.959Z,26.77
2018-05-18T07:38:18.241Z,24.30
2018-05-18T07:39:24.008Z,21.55
2018-05-18T07:40:35.451Z,23.00
2018-05-18T07:41:43.589Z,20.00
2018-05-18T07:42:49.728Z,24.37
2018-05-18T07:43:56.357Z,26.80
2018-05-18T07:45:01.397Z,21.48
2018-05-18T07:46:14.911Z,21.45
2018-05-18T07:47:20.388Z,30.77
2018-05-18T07:48:25.249Z,19.87
2018-05-18T07:49:31.008Z,20.98
2018-05-18T07:50:36.728Z,28.87
2018-05-18T07:51:45.071Z,22.65
2018-05-18T07:52:52.795Z,26.27
2018-05-18T07:53:58.914Z,21.83
2018-05-18T07:55:03.491Z,22.50
2018-05-18T07:56:08.392Z,29.95
2018-05-18T07:57:15.623Z,24.35
2018-05-18T07:58:21.468Z,21.60
2018-05-18T07:59:26.172Z,24.87
2018-05-18T08:00:30.407Z,28.48
2018-05-18T08:01:34.688Z,19.75
2018-05-18T08:02:40.273Z,28.30
2018-05-18T08:03:45.378Z,21.65
2018-05-18T08:04:49.637Z,21.02
2018-05-18T08:05:55.116Z,25.52
2018-05-18T08:07:16.447Z,27.40
2018-05-18T08:08:38.967Z,19.33
2018-05-18T08:09:48.485Z,21.70
2018-05-18T08:10:54.229Z,21.67
2018-05-18T08:11:58.524Z,21.90
2018-05-18T08:13:02.946Z,23.05
2018-05-18T08:14:07.242Z,25.37
2018-05-18T08:15:11.881Z,24.27
2018-05-18T08:16:16.843Z,22.05
2018-05-18T08:17:21.868Z,22.13
2018-05-18T08:18:26.147Z,24.27
2018-05-18T08:19:30.375Z,24.95
2018-05-18T08:20:34.615Z,24.52
2018-05-18T08:21:39.255Z,20.23
2018-05-18T08:22:43.532Z,22.87
2018-05-18T08:23:47.763Z,19.12
2018-05-18T08:24:51.979Z,25.10
2018-05-18T08:25:56.219Z,20.48
2018-05-18T08:27:09.533Z,22.83
2018-05-18T08:28:13.927Z,23.92
2018-05-18T08:29:36.326Z,20.90
2018-05-18T08:30:49.330Z,23.73
2018-05-18T08:31:53.780Z,20.77
2018-05-18T08:33:05.875Z,22.10
2018-05-18T08:34:13.015Z,19.20
2018-05-18T08:35:18.177Z,19.67
2018-05-18T08:36:24.056Z,22.75
2018-05-18T08:37:30.509Z,23.98
2018-05-18T08:38:36.518Z,24.67
2018-05-18T08:39:43.024Z,22.40
2018-05-18T08:40:47.705Z,26.55
2018-05-18T08:41:51.871Z,24.40
2018-05-18T08:42:56.041Z,21.35
2018-05-18T08:44:04.755Z,21.08
2018-05-18T08:45:09.440Z,25.35
2018-05-18T08:47:43.420Z,25.08
2018-05-18T08:48:48.057Z,19.95
2018-05-18T08:49:52.288Z,24.70
2018-05-18T08:50:56.330Z,21.60
2018-05-18T08:52:07.204Z,26.85
2018-05-18T08:53:11.627Z,20.85
2018-05-18T08:54:17.045Z,22.87
2018-05-18T08:55:21.317Z,20.88
2018-05-18T08:56:26.385Z,24.20
2018-05-18T08:57:30.689Z,22.20
2018-05-18T08:58:35.091Z,21.87
2018-05-18T08:59:39.402Z,20.12
2018-05-18T09:00:43.723Z,23.12
2018-05-18T09:01:47.863Z,25.98
2018-05-18T09:02:52.792Z,24.92
2018-05-18T09:03:57.021Z,22.35
2018-05-18T09:05:02.021Z,22.35
2018-05-18T09:06:06.159Z,21.08
2018-05-18T09:07:10.591Z,20.88
2018-05-18T09:08:15.079Z,24.85
2018-05-18T09:09:19.327Z,20.52
2018-05-18T09:10:23.631Z,21.48
2018-05-18T09:11:28.246Z,20.37
2018-05-18T09:12:32.500Z,23.08
2018-05-18T09:13:36.863Z,21.83
2018-05-18T09:14:41.163Z,23.80
2018-05-18T09:15:45.464Z,22.77
2018-05-18T09:16:49.783Z,22.48
2018-05-18T09:17:54.585Z,26.27
2018-05-18T09:18:59.123Z,27.75
2018-05-18T09:20:03.189Z,24.48
2018-05-18T09:21:07.315Z,20.00
2018-05-18T09:22:11.514Z,18.58
2018-05-18T09:23:15.689Z,25.67
2018-05-18T09:24:20.182Z,21.17
2018-05-18T09:25:24.456Z,16.87
2018-05-18T09:26:29.539Z,20.23
2018-05-18T09:27:35.463Z,20.92
2018-05-18T09:28:40.259Z,25.20
2018-05-18T09:29:47.298Z,20.02
2018-05-18T09:30:52.647Z,24.15
2018-05-18T09:32:00.557Z,18.83
2018-05-18T09:33:10.046Z,21.55
2018-05-18T09:34:19.915Z,17.55
2018-05-18T09:35:31.304Z,19.17
2018-05-18T09:36:37.183Z,18.05
2018-05-18T09:37:42.059Z,18.50
2018-05-18T09:38:46.753Z,20.27
2018-05-18T09:39:51.505Z,21.23
2018-05-18T09:40:56.551Z,19.55
2018-05-18T09:42:01.079Z,21.05
2018-05-18T09:43:05.436Z,19.80
2018-05-18T09:44:10.184Z,21.37
2018-05-18T09:45:14.479Z,19.75
2018-05-18T09:46:19.679Z,16.45
2018-05-18T09:47:24.844Z,19.15
2018-05-18T09:48:28.971Z,19.70
2018-05-18T09:49:33.399Z,22.00
2018-05-18T09:50:37.643Z,26.75
2018-05-18T09:51:42.705Z,19.77
2018-05-18T09:52:47.207Z,21.00
2018-05-18T09:53:51.424Z,20.50
2018-05-18T09:54:55.775Z,17.77
2018-05-18T09:56:00.803Z,16.30
2018-05-18T09:57:05.315Z,19.17
2018-05-18T09:58:10.014Z,17.23
2018-05-18T09:59:14.300Z,17.33
2018-05-18T10:00:19.558Z,20.70
2018-05-18T10:01:23.625Z,17.90
2018-05-18T10:02:27.722Z,20.95
2018-05-18T10:03:31.806Z,22.37
2018-05-18T10:04:36.404Z,21.35
2018-05-18T10:05:41.304Z,18.10
2018-05-18T10:06:45.571Z,16.15
2018-05-18T10:07:49.831Z,19.60
2018-05-18T10:08:54.733Z,21.45
2018-05-18T10:09:58.809Z,18.20
2018-05-18T10:11:03.331Z,20.65
2018-05-18T10:12:07.430Z,19.60
2018-05-18T10:13:11.513Z,18.52
2018-05-18T10:14:15.615Z,16.20
2018-05-18T10:15:19.712Z,15.48
2018-05-18T10:16:23.970Z,20.75
2018-05-18T10:17:29.100Z,17.33
2018-05-18T10:18:33.397Z,18.87
2018-05-18T10:19:37.551Z,20.35
2018-05-18T10:20:41.654Z,15.23
2018-05-18T10:21:45.773Z,15.40
2018-05-18T10:22:49.827Z,22.23
2018-05-18T10:25:24.171Z,24.15
2018-05-18T10:26:28.244Z,21.77
2018-05-18T10:27:33.155Z,21.12
2018-05-18T10:28:37.343Z,18.73
2018-05-18T10:29:41.756Z,16.77
2018-05-18T10:30:45.900Z,16.42
2018-05-18T10:31:50.776Z,18.58
2018-05-18T10:32:54.919Z,19.30
2018-05-18T10:33:59.738Z,20.60
2018-05-18T10:35:04.899Z,18.33
2018-05-18T10:36:09.004Z,16.02
2018-05-18T10:37:13.184Z,16.75
2018-05-18T10:38:17.343Z,19.85
2018-05-18T10:39:21.439Z,17.65
2018-05-18T10:40:25.914Z,18.58
2018-05-18T10:41:30.192Z,21.50
2018-05-18T10:42:34.492Z,17.35
2018-05-18T10:43:39.352Z,15.98
2018-05-18T10:44:43.494Z,19.85
2018-05-18T10:45:48.608Z,18.85
2018-05-18T10:46:53.328Z,15.05
2018-05-18T10:47:57.688Z,19.83
2018-05-18T10:49:02.843Z,22.10
2018-05-18T10:50:07.112Z,21.98
2018-05-18T10:51:11.562Z,16.33
2018-05-18T10:52:16.483Z,16.87
2018-05-18T10:53:21.377Z,15.52
2018-05-18T10:54:25.651Z,16.92
2018-05-18T10:55:30.687Z,19.55
2018-05-18T10:56:35.852Z,20.45
2018-05-18T10:57:40.384Z,17.48
2018-05-18T10:58:45.122Z,24.92
2018-05-18T10:59:51.040Z,15.75
2018-05-18T11:00:55.353Z,15.55
2018-05-18T11:01:59.653Z,22.92
2018-05-18T11:03:04.905Z,20.00
2018-05-18T11:04:09.010Z,17.85
2018-05-18T11:05:13.667Z,17.42
2018-05-18T11:06:17.891Z,15.88
2018-05-18T11:07:22.075Z,15.85
2018-05-18T11:08:26.157Z,16.85
2018-05-18T11:09:30.991Z,14.07
2018-05-18T11:10:35.847Z,19.77
2018-05-18T11:11:40.259Z,18.40
2018-05-18T11:12:44.392Z,13.93
2018-05-18T11:13:48.469Z,18.23
2018-05-18T11:14:52.708Z,16.37
2018-05-18T11:15:57.051Z,15.75
2018-05-18T11:17:01.500Z,15.77
2018-05-18T11:18:05.539Z,21.00
2018-05-18T11:19:10.478Z,15.35
2018-05-18T11:20:14.591Z,16.95
2018-05-18T11:21:18.900Z,18.87
2018-05-18T11:22:23.168Z,15.55
2018-05-18T11:23:28.526Z,16.83
2018-05-18T11:24:33.631Z,13.50
2018-05-18T11:25:41.008Z,15.07
2018-05-18T11:26:46.035Z,14.48
2018-05-18T11:27:51.948Z,13.15
2018-05-18T11:28:56.775Z,18.77
2018-05-18T11:30:01.325Z,13.35
2018-05-18T11:31:06.300Z,17.20
2018-05-18T11:32:10.772Z,17.40
2018-05-18T11:33:15.307Z,15.25
2018-05-18T11:34:34.734Z,16.42
2018-05-18T11:35:39.102Z,18.58
2018-05-18T11:36:44.432Z,12.57
2018-05-18T11:37:48.881Z,13.02
2018-05-18T11:38:54.356Z,16.48
2018-05-18T11:39:59.060Z,15.52
2018-05-18T11:41:03.405Z,17.55
2018-05-18T11:42:07.738Z,18.40
2018-05-18T11:43:13.432Z,14.38
2018-05-18T11:44:18.645Z,13.82
2018-05-18T11:45:22.943Z,18.27
2018-05-18T11:46:28.617Z,13.43
2018-05-18T11:47:32.979Z,14.68
2018-05-18T11:48:37.089Z,14.50
2018-05-18T11:49:41.410Z,16.30
2018-05-18T11:50:46.178Z,13.65
2018-05-18T11:51:50.471Z,22.35
2018-05-18T11:52:54.939Z,16.55
2018-05-18T11:53:59.371Z,15.00
2018-05-18T11:55:04.110Z,13.80
2018-05-18T11:56:09.062Z,16.23
2018-05-18T11:57:14.232Z,14.82
2018-05-18T11:58:18.535Z,14.80
2018-05-18T11:59:22.703Z,14.30
2018-05-18T12:00:27.699Z,13.32
2018-05-18T12:01:31.830Z,18.25
2018-05-18T12:02:36.727Z,14.60
2018-05-18T12:03:40.963Z,18.50
2018-05-18T12:04:46.314Z,19.67
2018-05-18T12:05:51.425Z,17.42
2018-05-18T12:06:56.751Z,14.82
2018-05-18T12:08:02.449Z,16.33
2018-05-18T12:09:07.801Z,15.95
2018-05-18T12:10:12.568Z,17.10
2018-05-18T12:11:17.848Z,17.55
2018-05-18T12:12:22.251Z,16.10
2018-05-18T12:13:26.957Z,16.05
2018-05-18T12:14:31.859Z,16.27
2018-05-18T12:15:37.283Z,14.27
2018-05-18T12:16:42.328Z,16.75
2018-05-18T12:17:46.992Z,16.48
2018-05-18T12:18:51.978Z,15.75
2018-05-18T12:19:56.147Z,16.00
2018-05-18T12:21:00.291Z,18.17
2018-05-18T12:22:04.619Z,13.18
2018-05-18T12:23:08.864Z,16.10
2018-05-18T12:24:14.916Z,18.37
2018-05-18T12:25:19.978Z,19.27
2018-05-18T12:26:25.677Z,16.50
2018-05-18T12:27:29.788Z,14.30
2018-05-18T12:28:34.117Z,15.20
2018-05-18T12:29:39.548Z,12.65
2018-05-18T12:30:43.883Z,15.38
2018-05-18T12:31:48.265Z,19.33
2018-05-18T12:32:52.404Z,18.00
2018-05-18T12:33:57.230Z,12.20
2018-05-18T12:35:02.384Z,16.85
2018-05-18T12:36:06.578Z,15.30
2018-05-18T12:37:11.574Z,15.90
2018-05-18T12:38:16.659Z,17.75
2018-05-18T12:39:20.755Z,16.77
2018-05-18T12:40:25.047Z,12.98
2018-05-18T12:41:29.571Z,15.40
2018-05-18T12:42:34.065Z,20.60
2018-05-18T12:43:38.473Z,13.98
2018-05-18T12:44:44.086Z,14.50
2018-05-18T12:45:48.428Z,17.58
2018-05-18T12:46:52.664Z,19.42
2018-05-18T12:47:57.195Z,14.23
2018-05-18T12:49:01.753Z,11.45
2018-05-18T12:50:06.378Z,16.58
2018-05-18T12:51:10.605Z,13.27
2018-05-18T12:52:16.117Z,22.23
2018-05-18T12:54:49.703Z,16.50
2018-05-18T12:55:54.053Z,15.77
2018-05-18T12:56:58.282Z,12.85
2018-05-18T12:58:03.008Z,19.90
2018-05-18T12:59:07.607Z,15.05
2018-05-18T13:00:12.875Z,18.12
2018-05-18T13:01:17.803Z,14.95
2018-05-18T13:02:22.965Z,11.75
2018-05-18T13:03:28.064Z,16.08
2018-05-18T13:04:32.922Z,16.45
2018-05-18T13:05:40.208Z,11.85
2018-05-18T13:06:45.560Z,18.10
2018-05-18T13:07:49.898Z,17.95
2018-05-18T13:08:54.259Z,14.23
2018-05-18T13:09:58.968Z,13.38
2018-05-18T13:11:03.434Z,13.82
2018-05-18T13:12:07.666Z,10.85
2018-05-18T13:13:11.910Z,15.23
2018-05-18T13:14:16.984Z,14.82
2018-05-18T13:15:21.285Z,14.05
2018-05-18T13:16:26.779Z,14.15
2018-05-18T13:17:32.048Z,15.45
2018-05-18T13:18:38.584Z,19.95
2018-05-18T13:19:42.945Z,11.05
2018-05-18T13:20:47.128Z,15.80
2018-05-18T13:21:52.286Z,13.35
2018-05-18T13:22:56.752Z,15.45
2018-05-18T13:24:00.923Z,11.73
2018-05-18T13:25:06.180Z,17.23
2018-05-18T13:26:10.871Z,17.87
2018-05-18T13:27:17.550Z,17.33
2018-05-18T13:28:22.696Z,15.70
2018-05-18T13:29:26.834Z,15.70
2018-05-18T13:30:31.004Z,14.80
2018-05-18T13:31:35.048Z,16.33
2018-05-18T13:32:39.326Z,18.52
2018-05-18T13:33:43.540Z,16.05
2018-05-18T13:34:48.164Z,13.18
2018-05-18T13:35:53.381Z,9.88
2018-05-18T13:36:58.965Z,18.42
2018-05-18T13:38:03.446Z,10.68
2018-05-18T13:39:07.810Z,11.45
2018-05-18T13:40:12.162Z,15.55
2018-05-18T13:41:16.422Z,12.70
2018-05-18T13:42:20.946Z,17.42
2018-05-18T13:43:25.369Z,13.60
2018-05-18T13:44:29.660Z,13.60
2018-05-18T13:45:34.232Z,15.25
2018-05-18T13:46:39.344Z,11.95
2018-05-18T13:47:43.676Z,15.40
2018-05-18T13:48:48.228Z,14.73
2018-05-18T13:49:53.911Z,14.48
2018-05-18T13:50:58.403Z,13.57
2018-05-18T13:52:03.167Z,16.35
2018-05-18T13:53:07.559Z,13.45
2018-05-18T13:54:12.808Z,11.73
2018-05-18T13:55:18.056Z,11.63
2018-05-18T13:56:22.795Z,14.10
2018-05-18T13:57:27.783Z,15.27
2018-05-18T13:58:32.863Z,13.23
2018-05-18T13:59:37.320Z,15.38
2018-05-18T14:00:42.387Z,13.05
2018-05-18T14:01:47.341Z,14.50
2018-05-18T14:02:54.498Z,15.80
2018-05-18T14:03:59.428Z,23.73
2018-05-18T14:05:05.451Z,15.35